Time;durP1;ratioP1;P1;durP2;ratioP2;P2;SDS_P1;SDS_P2;PMS_P1;PMS_P2;Temp;Humidity;BMP_temperature;BMP_pressure;BME280_temperature;BME280_humidity;BME280_pressure;Samples;Min_cycle;Max_cycle;Signal;HPM_P1;HPM_P2
2022/06/17 00:01:10;;;;;;;2.30;1.23;;;16.30;99.90;;;;;;5010373;28;20195;-77
2022/06/17 00:03:36;;;;;;;1.30;1.20;;;16.20;99.90;;;;;;4993850;28;20310;-77
2022/06/17 00:06:03;;;;;;;1.57;1.30;;;16.10;99.90;;;;;;4994058;28;20282;-77
2022/06/17 00:08:35;;;;;;;3.53;1.53;;;15.90;99.90;;;;;;4993944;28;20183;-77
2022/06/17 00:11:00;;;;;;;1.67;1.40;;;15.80;99.90;;;;;;4994141;28;20266;-75
2022/06/17 00:13:26;;;;;;;1.47;1.37;;;15.70;99.90;;;;;;4977429;28;20227;-77
2022/06/17 00:15:52;;;;;;;1.40;1.30;;;15.60;99.90;;;;;;4977587;28;20183;-77
2022/06/17 00:18:19;;;;;;;1.73;1.50;;;15.50;99.90;;;;;;5009795;28;20207;-77
2022/06/17 00:20:47;;;;;;;2.90;1.43;;;15.50;99.90;;;;;;4993354;28;20179;-76
2022/06/17 00:23:21;;;;;;;2.13;1.60;;;15.30;99.90;;;;;;4993795;28;20210;-77
2022/06/17 00:25:48;;;;;;;1.67;1.47;;;15.10;99.90;;;;;;4993954;28;20598;-77
2022/06/17 00:28:24;;;;;;;1.40;1.30;;;15.00;99.90;;;;;;4993475;28;20180;-77
2022/06/17 00:30:50;;;;;;;1.50;1.40;;;14.90;99.90;;;;;;4992749;28;20183;-76
2022/06/17 00:33:18;;;;;;;1.50;1.33;;;15.00;99.90;;;;;;4992332;28;20196;-77
2022/06/17 00:35:47;;;;;;;1.67;1.30;;;15.10;99.90;;;;;;4992860;28;20211;-77
2022/06/17 00:38:31;;;;;;;1.90;1.60;;;15.00;99.90;;;;;;4992403;28;20298;-77
2022/06/17 00:41:06;;;;;;;2.83;1.40;;;14.70;99.90;;;;;;4992365;28;20548;-77
2022/06/17 00:43:35;;;;;;;1.40;1.20;;;14.60;99.90;;;;;;4992516;28;20225;-76
2022/06/17 00:46:33;;;;;;;2.30;1.30;;;14.50;99.90;;;;;;4992753;28;20198;-77
2022/06/17 00:49:31;;;;;;;1.60;1.50;;;14.60;99.90;;;;;;4992911;28;20164;-76
2022/06/17 00:52:06;;;;;;;1.27;1.17;;;14.70;99.90;;;;;;5009168;28;20265;-77
2022/06/17 00:54:48;;;;;;;1.87;1.60;;;14.60;99.90;;;;;;4993041;28;20275;-76
2022/06/17 00:57:20;;;;;;;2.73;1.50;;;14.70;99.90;;;;;;4992738;28;20199;-77
2022/06/17 01:00:00;;;;;;;1.33;1.23;;;14.70;99.90;;;;;;4992673;28;20188;-77
2022/06/17 01:02:29;;;;;;;2.43;1.40;;;14.70;99.90;;;;;;4993116;28;20549;-76
2022/06/17 01:04:55;;;;;;;1.60;1.40;;;14.80;99.90;;;;;;4992575;28;20171;-77
2022/06/17 01:07:25;;;;;;;1.63;1.40;;;14.70;99.90;;;;;;4976371;28;20234;-77
2022/06/17 01:10:01;;;;;;;1.60;1.50;;;14.70;99.90;;;;;;4993093;28;20266;-77
2022/06/17 01:12:33;;;;;;;1.60;1.50;;;14.60;99.90;;;;;;4992507;28;20705;-77
2022/06/17 01:14:59;;;;;;;1.97;1.57;;;14.60;99.90;;;;;;4992589;28;20184;-76
2022/06/17 01:17:26;;;;;;;1.60;1.50;;;14.60;99.90;;;;;;4992710;28;20223;-77
2022/06/17 01:19:54;;;;;;;1.90;1.67;;;14.40;99.90;;;;;;4992614;28;20179;-77
2022/06/17 01:22:26;;;;;;;2.13;1.40;;;14.30;99.90;;;;;;4992857;28;20203;-77
2022/06/17 01:25:07;;;;;;;2.33;1.80;;;14.00;99.90;;;;;;4994099;28;20639;-77
2022/06/17 01:27:36;;;;;;;2.50;1.30;;;14.10;99.90;;;;;;4992605;28;20183;-76
2022/06/17 01:30:03;;;;;;;1.70;1.50;;;14.10;99.90;;;;;;4992756;28;20179;-77
2022/06/17 01:32:36;;;;;;;1.60;1.50;;;14.10;99.90;;;;;;4992730;28;20200;-76
2022/06/17 01:35:04;;;;;;;1.50;1.40;;;13.90;99.90;;;;;;4993029;28;20180;-77
2022/06/17 01:37:30;;;;;;;1.83;1.47;;;13.70;99.90;;;;;;4992572;28;20206;-77
2022/06/17 01:39:58;;;;;;;2.97;1.70;;;13.60;99.90;;;;;;4992635;28;20186;-77
2022/06/17 01:42:25;;;;;;;1.70;1.40;;;13.60;99.90;;;;;;4993657;28;20677;-77
2022/06/17 01:44:54;;;;;;;2.40;1.60;;;13.40;99.90;;;;;;4992466;28;20167;-77
2022/06/17 01:47:24;;;;;;;1.60;1.50;;;13.40;99.90;;;;;;4993848;28;20175;-76
2022/06/17 01:49:55;;;;;;;1.87;1.53;;;13.30;99.90;;;;;;4976620;28;20274;-77
2022/06/17 01:52:52;;;;;;;2.23;1.70;;;13.20;99.90;;;;;;5011434;28;20179;-77
2022/06/17 01:55:38;;;;;;;1.77;1.47;;;13.30;99.90;;;;;;4991814;28;20545;-77
2022/06/17 01:58:13;;;;;;;2.10;1.50;;;13.60;99.90;;;;;;4996124;28;20203;-77
2022/06/17 02:00:41;;;;;;;2.93;1.77;;;13.70;99.90;;;;;;4996418;28;20536;-76
2022/06/17 02:03:18;;;;;;;1.93;1.60;;;13.70;99.90;;;;;;4997283;28;20258;-77
2022/06/17 02:05:49;;;;;;;1.40;1.30;;;13.70;99.90;;;;;;4994713;28;20190;-77
2022/06/17 02:08:15;;;;;;;3.10;1.63;;;13.60;99.90;;;;;;4994743;28;20187;-77
2022/06/17 02:10:44;;;;;;;2.37;1.57;;;13.40;99.90;;;;;;4994842;28;20180;-77
2022/06/17 02:13:11;;;;;;;1.60;1.50;;;13.40;99.90;;;;;;4978189;28;20195;-77
2022/06/17 02:15:37;;;;;;;1.70;1.60;;;13.40;99.90;;;;;;4994556;28;20217;-77
2022/06/17 02:18:09;;;;;;;2.60;1.50;;;13.50;99.90;;;;;;4994365;28;20699;-77
2022/06/17 02:20:38;;;;;;;3.57;1.67;;;13.30;99.90;;;;;;4995702;28;20658;-77
2022/06/17 02:23:04;;;;;;;1.73;1.47;;;13.10;99.90;;;;;;4994176;28;20203;-77
2022/06/17 02:25:39;;;;;;;2.63;1.60;;;12.90;99.90;;;;;;4994260;28;20275;-76
2022/06/17 02:28:06;;;;;;;2.43;1.60;;;12.70;99.90;;;;;;4994452;28;20258;-77
2022/06/17 02:30:32;;;;;;;1.97;1.70;;;12.70;99.90;;;;;;4994158;28;20191;-77
2022/06/17 02:33:01;;;;;;;2.47;1.80;;;12.70;99.90;;;;;;4994085;28;20547;-77
2022/06/17 02:35:45;;;;;;;1.80;1.70;;;12.90;99.90;;;;;;4994191;28;20693;-77
2022/06/17 02:38:17;;;;;;;1.67;1.50;;;13.10;99.90;;;;;;5010532;28;20235;-77
2022/06/17 02:40:47;;;;;;;1.77;1.63;;;12.90;99.90;;;;;;5010410;28;20706;-77
2022/06/17 02:43:17;;;;;;;2.00;1.60;;;12.90;99.90;;;;;;4993627;28;20198;-77
2022/06/17 02:45:46;;;;;;;2.73;2.00;;;12.70;99.90;;;;;;4977901;28;20180;-77
2022/06/17 02:48:19;;;;;;;1.90;1.80;;;12.40;99.90;;;;;;4994050;28;20175;-77
2022/06/17 02:50:44;;;;;;;2.30;2.10;;;12.40;99.90;;;;;;4993992;28;20182;-77
2022/06/17 02:53:10;;;;;;;3.67;1.83;;;12.60;99.90;;;;;;4977317;28;20261;-76
2022/06/17 02:55:39;;;;;;;2.53;1.80;;;12.90;99.90;;;;;;4993629;28;20180;-76
2022/06/17 02:58:21;;;;;;;2.50;1.87;;;12.80;99.90;;;;;;4993741;28;20218;-77
2022/06/17 03:00:47;;;;;;;3.07;1.80;;;12.80;99.90;;;;;;4993627;28;20234;-77
2022/06/17 03:03:17;;;;;;;2.40;1.90;;;13.10;99.90;;;;;;4976190;28;20211;-77
2022/06/17 03:05:44;;;;;;;1.87;1.77;;;13.20;99.90;;;;;;4993576;28;20179;-77
2022/06/17 03:08:20;;;;;;;2.10;1.90;;;13.30;99.90;;;;;;4977315;28;20180;-77
2022/06/17 03:10:48;;;;;;;2.23;1.90;;;13.00;99.90;;;;;;5010105;28;20183;-77
2022/06/17 03:13:33;;;;;;;2.17;1.93;;;12.60;99.90;;;;;;4993215;28;20207;-76
2022/06/17 03:16:02;;;;;;;2.93;1.90;;;12.70;99.90;;;;;;4993378;28;20191;-77
2022/06/17 03:18:28;;;;;;;2.00;1.80;;;13.00;99.90;;;;;;4977286;28;20218;-77
2022/06/17 03:20:55;;;;;;;1.87;1.77;;;12.80;99.90;;;;;;4993576;28;20183;-77
2022/06/17 03:23:33;;;;;;;3.50;1.70;;;12.90;99.90;;;;;;4993186;28;20673;-77
2022/06/17 03:26:13;;;;;;;2.50;1.87;;;13.00;99.90;;;;;;4993223;28;20175;-77
2022/06/17 03:28:51;;;;;;;1.87;1.77;;;12.70;99.90;;;;;;4993185;28;20317;-77
2022/06/17 03:31:40;;;;;;;1.90;1.80;;;12.50;99.90;;;;;;4993191;28;20266;-76
2022/06/17 03:34:10;;;;;;;1.73;1.60;;;12.50;99.90;;;;;;4994080;28;20196;-77
2022/06/17 03:36:45;;;;;;;1.73;1.63;;;12.60;99.90;;;;;;4993039;28;20270;-77
2022/06/17 03:39:33;;;;;;;2.50;2.00;;;12.60;99.90;;;;;;4992946;28;20249;-77
2022/06/17 03:42:22;;;;;;;2.50;1.90;;;12.60;99.90;;;;;;4993891;28;20186;-77
2022/06/17 03:45:16;;;;;;;3.03;1.83;;;12.70;99.90;;;;;;4966764;28;20188;-77
2022/06/17 03:48:03;;;;;;;2.80;1.87;;;12.70;99.90;;;;;;4978249;28;20231;-77
2022/06/17 03:50:37;;;;;;;1.87;1.77;;;12.60;99.90;;;;;;4993066;28;20546;-77
2022/06/17 03:53:19;;;;;;;1.83;1.73;;;12.60;99.90;;;;;;4992630;28;20219;-77
2022/06/17 03:55:45;;;;;;;3.30;2.10;;;12.80;99.90;;;;;;4992737;28;20186;-76
2022/06/17 03:58:15;;;;;;;2.67;1.80;;;12.90;99.90;;;;;;4992548;28;20278;-77
2022/06/17 04:00:56;;;;;;;2.97;1.80;;;12.80;99.90;;;;;;4992472;28;20190;-76
2022/06/17 04:03:25;;;;;;;4.17;2.00;;;12.90;99.90;;;;;;4992010;28;20253;-77
2022/06/17 04:06:00;;;;;;;1.90;1.80;;;12.80;99.90;;;;;;4992774;28;20203;-77
2022/06/17 04:08:26;;;;;;;2.10;1.70;;;12.60;99.90;;;;;;4992461;28;20246;-77
2022/06/17 04:10:52;;;;;;;3.77;1.93;;;12.40;99.90;;;;;;4992184;28;20183;-77
2022/06/17 04:13:21;;;;;;;2.37;1.70;;;12.30;99.90;;;;;;4992090;28;20641;-77
2022/06/17 04:15:50;;;;;;;2.47;1.80;;;12.40;99.90;;;;;;4993268;28;20222;-77
2022/06/17 04:18:16;;;;;;;2.90;1.70;;;12.30;99.90;;;;;;4992457;28;20224;-77
2022/06/17 04:20:44;;;;;;;2.10;1.90;;;12.30;99.90;;;;;;5008567;28;20184;-77
2022/06/17 04:23:17;;;;;;;2.20;2.00;;;12.30;99.90;;;;;;5008202;28;20198;-77
2022/06/17 04:26:11;;;;;;;2.37;1.90;;;12.40;99.90;;;;;;4992068;28;20655;-77
2022/06/17 04:28:45;;;;;;;2.53;2.10;;;12.60;99.90;;;;;;5008403;28;20210;-77
2022/06/17 04:31:17;;;;;;;2.63;1.83;;;12.60;99.90;;;;;;4992141;28;20176;-77
2022/06/17 04:33:51;;;;;;;3.83;1.83;;;12.70;99.90;;;;;;4991627;28;20230;-77
2022/06/17 04:36:28;;;;;;;2.20;1.90;;;13.00;99.90;;;;;;4992093;28;20186;-77
2022/06/17 04:39:14;;;;;;;2.63;1.90;;;13.20;99.90;;;;;;4992031;28;20219;-77
2022/06/17 04:41:41;;;;;;;2.30;2.10;;;13.20;99.90;;;;;;4991882;28;20651;-77
2022/06/17 04:44:12;;;;;;;2.20;2.00;;;13.00;99.90;;;;;;4993107;28;20848;-77
2022/06/17 04:46:44;;;;;;;3.03;2.03;;;13.00;99.90;;;;;;4993058;28;20180;-77
2022/06/17 04:49:19;;;;;;;1.93;1.83;;;12.90;99.90;;;;;;4992914;28;20287;-77
2022/06/17 04:51:45;;;;;;;2.63;2.00;;;12.90;99.90;;;;;;4991757;28;20202;-77
2022/06/17 04:54:11;;;;;;;2.10;1.90;;;12.90;99.90;;;;;;4991637;28;20198;-77
2022/06/17 04:56:45;;;;;;;3.93;2.13;;;13.10;99.90;;;;;;4975438;28;20657;-77
2022/06/17 04:59:34;;;;;;;2.73;1.93;;;13.30;99.90;;;;;;4991894;28;20192;-77
2022/06/17 05:02:10;;;;;;;3.33;2.10;;;13.40;99.90;;;;;;4991457;28;20182;-77
2022/06/17 05:04:35;;;;;;;2.10;1.90;;;13.40;99.90;;;;;;4991703;28;20198;-77
2022/06/17 05:07:01;;;;;;;2.50;2.30;;;13.60;99.90;;;;;;4991554;28;20214;-77
2022/06/17 05:09:45;;;;;;;2.20;2.00;;;13.60;99.90;;;;;;4991713;28;20219;-78
2022/06/17 05:12:22;;;;;;;2.50;2.30;;;13.70;99.90;;;;;;4991410;28;20229;-80
2022/06/17 05:14:55;;;;;;;2.97;2.30;;;13.70;99.90;;;;;;5008473;28;20206;-81
2022/06/17 05:17:21;;;;;;;5.13;2.40;;;13.80;99.90;;;;;;4993091;28;20248;-78
2022/06/17 05:19:48;;;;;;;2.57;2.37;;;13.90;99.90;;;;;;4991757;28;20387;-79
2022/06/17 05:22:38;;;;;;;5.63;2.30;;;13.90;99.90;;;;;;4991590;28;20168;-78
2022/06/17 05:25:17;;;;;;;2.70;2.40;;;13.80;99.90;;;;;;4992800;28;20175;-78
2022/06/17 05:27:43;;;;;;;2.93;2.43;;;13.80;99.90;;;;;;4994672;28;20199;-78
2022/06/17 05:30:09;;;;;;;3.43;2.40;;;13.70;99.90;;;;;;4996055;28;20222;-79
2022/06/17 05:32:35;;;;;;;2.90;2.60;;;13.70;99.90;;;;;;4980110;28;20231;-79
2022/06/17 05:35:01;;;;;;;3.27;2.63;;;13.80;99.90;;;;;;4997271;28;20202;-79
2022/06/17 05:37:26;;;;;;;3.40;3.00;;;14.00;99.90;;;;;;4997910;28;20176;-78
2022/06/17 05:39:54;;;;;;;2.97;2.63;;;14.00;99.90;;;;;;4980935;28;20183;-78
2022/06/17 05:42:19;;;;;;;3.03;2.70;;;14.00;99.90;;;;;;4979854;28;20175;-79
2022/06/17 05:44:46;;;;;;;2.80;2.60;;;14.10;99.90;;;;;;4979721;28;20176;-78
2022/06/17 05:47:12;;;;;;;3.73;2.80;;;14.20;99.90;;;;;;4979006;28;20180;-78
2022/06/17 05:49:38;;;;;;;3.33;2.80;;;14.30;99.90;;;;;;4978758;28;20230;-78
2022/06/17 05:52:05;;;;;;;2.70;2.50;;;14.50;99.90;;;;;;5010992;28;20218;-78
2022/06/17 05:54:31;;;;;;;4.97;2.80;;;14.60;99.90;;;;;;5011199;28;20180;-78
2022/06/17 05:56:56;;;;;;;2.93;2.67;;;14.70;99.90;;;;;;5011129;28;20187;-77
2022/06/17 05:59:22;;;;;;;3.57;2.50;;;14.70;99.90;;;;;;4995016;28;20187;-77
2022/06/17 06:01:48;;;;;;;3.53;2.47;;;14.80;99.90;;;;;;4978555;28;20223;-77
2022/06/17 06:04:13;;;;;;;2.80;2.50;;;15.00;99.90;;;;;;5011038;28;20211;-77
2022/06/17 06:06:39;;;;;;;3.23;2.53;;;15.10;99.90;;;;;;4994867;28;20207;-78
2022/06/17 06:09:04;;;;;;;5.93;2.50;;;15.20;99.90;;;;;;4978306;28;20298;-78
2022/06/17 06:11:30;;;;;;;3.90;2.50;;;15.30;99.90;;;;;;4994490;28;20176;-77
2022/06/17 06:13:56;;;;;;;2.53;2.30;;;15.50;99.90;;;;;;4995512;28;20214;-77
2022/06/17 06:16:23;;;;;;;2.50;2.20;;;15.50;99.90;;;;;;4978340;28;20613;-77
2022/06/17 06:18:50;;;;;;;3.57;2.30;;;15.70;99.90;;;;;;4978405;28;20176;-78
2022/06/17 06:21:17;;;;;;;4.00;2.60;;;15.80;99.90;;;;;;4994264;28;20191;-78
2022/06/17 06:23:42;;;;;;;3.50;2.37;;;15.90;99.90;;;;;;4994153;28;20575;-78
2022/06/17 06:26:12;;;;;;;4.03;2.43;;;16.10;99.90;;;;;;4994505;28;20187;-78
2022/06/17 06:28:37;;;;;;;3.77;2.50;;;16.20;99.90;;;;;;4994577;28;20215;-78
2022/06/17 06:31:23;;;;;;;2.80;2.50;;;16.30;99.90;;;;;;5010782;28;20525;-77
2022/06/17 06:33:48;;;;;;;3.80;2.50;;;16.40;99.90;;;;;;4993988;28;20196;-77
2022/06/17 06:36:14;;;;;;;2.40;2.20;;;16.60;99.90;;;;;;4994086;28;20260;-77
2022/06/17 06:38:40;;;;;;;2.70;2.40;;;16.60;99.90;;;;;;4993969;28;20182;-77
2022/06/17 06:41:05;;;;;;;3.80;2.30;;;16.60;99.90;;;;;;4994191;28;20287;-78
2022/06/17 06:43:31;;;;;;;5.33;3.00;;;16.70;99.90;;;;;;5010108;28;20203;-78
2022/06/17 06:45:57;;;;;;;2.53;2.10;;;16.80;99.90;;;;;;4993974;28;20674;-77
2022/06/17 06:48:25;;;;;;;2.87;2.10;;;17.00;99.90;;;;;;4993714;28;20207;-78
2022/06/17 06:50:51;;;;;;;3.93;2.30;;;17.10;99.90;;;;;;4993788;28;20176;-77
2022/06/17 06:53:17;;;;;;;4.03;2.20;;;17.30;99.90;;;;;;4993740;28;20207;-77
2022/06/17 06:55:43;;;;;;;3.13;2.40;;;17.40;99.90;;;;;;4994129;28;20701;-77
2022/06/17 06:58:15;;;;;;;4.13;2.20;;;17.50;99.90;;;;;;4993628;28;20557;-78
2022/06/17 07:00:46;;;;;;;5.30;2.33;;;17.50;99.90;;;;;;5010110;28;20207;-78
2022/06/17 07:03:13;;;;;;;2.40;2.20;;;17.70;99.90;;;;;;4993153;28;20230;-78
2022/06/17 07:05:41;;;;;;;2.60;1.90;;;17.70;99.90;;;;;;4977817;28;20219;-82
2022/06/17 07:08:09;;;;;;;3.40;2.20;;;17.80;99.90;;;;;;4994011;28;20314;-78
2022/06/17 07:10:36;;;;;;;4.30;2.00;;;17.90;99.90;;;;;;4995187;28;20168;-78
2022/06/17 07:13:42;;;;;;;2.50;2.30;;;18.10;99.90;;;;;;4993392;28;20202;-78
2022/06/17 07:16:09;;;;;;;2.37;2.13;;;18.30;99.90;;;;;;5010414;28;20245;-78
2022/06/17 07:18:36;;;;;;;2.97;2.20;;;18.40;99.90;;;;;;4993828;28;20187;-78
2022/06/17 07:21:07;;;;;;;4.23;2.20;;;18.50;99.90;;;;;;4995043;28;20176;-78
2022/06/17 07:23:36;;;;;;;4.67;2.00;;;18.60;99.90;;;;;;4993605;28;20230;-78
2022/06/17 07:26:05;;;;;;;3.37;2.07;;;18.80;99.90;;;;;;4993654;28;20191;-78
2022/06/17 07:28:31;;;;;;;3.10;1.80;;;18.90;99.90;;;;;;4993535;28;20207;-77
2022/06/17 07:30:57;;;;;;;2.50;2.00;;;19.00;99.90;;;;;;4993669;28;20183;-78
2022/06/17 07:33:25;;;;;;;4.00;2.30;;;19.10;99.90;;;;;;4993601;28;20191;-77
2022/06/17 07:35:55;;;;;;;4.67;2.30;;;19.20;99.90;;;;;;4993650;28;20179;-77
2022/06/17 07:41:09;;;;;;;2.57;2.07;;;19.40;99.90;;;;;;4994941;28;20171;-77
2022/06/17 07:43:34;;;;;;;3.43;1.87;;;19.60;99.90;;;;;;5009755;28;20204;-77
2022/06/17 07:46:01;;;;;;;3.87;2.10;;;19.70;99.90;;;;;;4977381;28;20234;-77
2022/06/17 07:48:27;;;;;;;2.50;1.97;;;20.00;99.90;;;;;;4977075;28;20204;-76
2022/06/17 07:50:53;;;;;;;1.90;1.80;;;20.20;99.90;;;;;;4992783;28;20207;-77
2022/06/17 07:53:19;;;;;;;2.13;1.80;;;20.40;99.90;;;;;;4976776;28;20214;-77
2022/06/17 07:55:44;;;;;;;3.63;2.00;;;20.40;99.90;;;;;;4993030;28;20188;-76
2022/06/17 07:58:14;;;;;;;2.00;1.80;;;20.40;99.90;;;;;;4993376;28;20190;-77
2022/06/17 08:00:43;;;;;;;2.67;2.10;;;20.60;99.90;;;;;;4993159;28;20183;-77
2022/06/17 08:03:10;;;;;;;2.45;1.80;;;20.80;99.90;;;;;;5028784;22;20244;-79
2022/06/17 08:05:37;;;;;;;3.05;2.05;;;20.80;99.90;;;;;;5031254;28;20177;-78
2022/06/17 08:08:03;;;;;;;2.25;1.60;;;20.90;99.90;;;;;;5031196;28;20270;-78
2022/06/17 08:10:31;;;;;;;1.85;1.60;;;21.00;99.90;;;;;;5015405;28;20182;-78
2022/06/17 08:12:57;;;;;;;3.65;1.90;;;21.00;99.90;;;;;;5032584;28;20767;-79
2022/06/17 08:15:23;;;;;;;2.38;1.80;;;21.00;99.90;;;;;;5015485;28;20190;-79
2022/06/17 08:17:49;;;;;;;2.80;1.70;;;21.10;99.90;;;;;;5031725;28;20178;-79
2022/06/17 08:20:24;;;;;;;1.60;1.50;;;21.20;98.40;;;;;;5015573;28;20181;-79
2022/06/17 08:22:50;;;;;;;2.72;1.90;;;21.10;97.10;;;;;;5031334;28;20181;-78
2022/06/17 08:25:17;;;;;;;2.50;1.80;;;21.20;98.80;;;;;;5015890;28;20182;-78
2022/06/17 08:27:55;;;;;;;3.67;1.80;;;21.40;97.60;;;;;;5015077;28;20202;-79
2022/06/17 08:30:24;;;;;;;1.60;1.50;;;21.60;97.90;;;;;;5015888;28;20182;-78
2022/06/17 08:32:53;;;;;;;2.08;1.63;;;21.80;97.30;;;;;;5031247;28;20174;-78
2022/06/17 08:35:48;;;;;;;1.83;1.52;;;22.00;97.10;;;;;;5032118;28;20208;-79
2022/06/17 08:38:33;;;;;;;1.90;1.55;;;22.00;97.30;;;;;;5031309;28;20576;-78
2022/06/17 08:41:29;;;;;;;2.88;1.60;;;22.30;97.50;;;;;;5031108;28;20174;-79
2022/06/17 08:44:18;;;;;;;2.42;1.75;;;22.30;93.00;;;;;;5032512;28;20190;-79
2022/06/17 08:47:06;;;;;;;2.30;1.60;;;22.30;92.60;;;;;;5032377;28;20166;-78
2022/06/17 08:49:59;;;;;;;2.28;1.48;;;22.10;91.70;;;;;;5031083;28;20202;-79
2022/06/17 08:53:02;;;;;;;2.80;1.73;;;22.20;92.40;;;;;;5030941;28;20229;-78
2022/06/17 08:55:43;;;;;;;2.13;1.70;;;22.40;89.20;;;;;;5031014;28;20637;-79
2022/06/17 08:58:15;;;;;;;2.83;1.60;;;22.20;88.30;;;;;;5031072;28;20181;-78
2022/06/17 09:01:06;;;;;;;3.05;1.50;;;22.20;88.00;;;;;;5030237;28;20549;-78
2022/06/17 09:03:49;;;;;;;2.28;1.45;;;22.40;91.10;;;;;;5030675;28;20241;-77
2022/06/17 09:06:27;;;;;;;2.58;1.60;;;22.60;86.10;;;;;;5032132;28;20170;-78
2022/06/17 09:09:13;;;;;;;2.85;1.70;;;22.80;84.80;;;;;;5031022;28;20205;-77
2022/06/17 09:11:50;;;;;;;2.10;1.45;;;22.80;85.20;;;;;;5031362;28;20234;-79
2022/06/17 09:14:54;;;;;;;2.97;1.60;;;23.00;86.50;;;;;;5030555;28;20667;-78
2022/06/17 09:17:35;;;;;;;1.50;1.40;;;23.20;82.80;;;;;;5031653;28;20170;-80
2022/06/17 09:20:04;;;;;;;2.55;1.67;;;22.90;80.60;;;;;;5031698;28;20166;-78
2022/06/17 09:22:47;;;;;;;3.42;1.40;;;22.90;80.90;;;;;;5014387;28;20174;-77
2022/06/17 09:25:19;;;;;;;1.48;1.38;;;23.20;80.20;;;;;;5030951;28;20201;-78
2022/06/17 09:27:48;;;;;;;1.40;1.30;;;23.50;78.00;;;;;;5031712;28;20202;-78
2022/06/17 09:30:19;;;;;;;1.67;1.30;;;23.90;74.20;;;;;;5031114;28;20179;-77
2022/06/17 09:33:05;;;;;;;1.40;1.30;;;24.20;74.20;;;;;;5012321;28;20187;-79
2022/06/17 09:35:39;;;;;;;1.48;1.38;;;24.40;77.10;;;;;;5029411;28;20173;-79
2022/06/17 09:38:14;;;;;;;2.55;1.50;;;24.60;69.70;;;;;;5013695;28;20162;-75
2022/06/17 09:41:01;;;;;;;2.70;1.58;;;24.60;70.50;;;;;;4995495;28;20167;-78
2022/06/17 09:43:39;;;;;;;2.08;1.50;;;24.40;69.60;;;;;;5011434;28;20198;-77
2022/06/17 09:46:08;;;;;;;1.63;1.40;;;24.30;70.00;;;;;;5012395;28;20174;-79
2022/06/17 09:48:54;;;;;;;2.40;1.45;;;24.30;68.30;;;;;;5030125;28;20673;-79
2022/06/17 09:51:40;;;;;;;3.13;1.50;;;24.60;68.70;;;;;;5029920;28;20171;-78
2022/06/17 09:54:21;;;;;;;1.48;1.27;;;24.90;66.60;;;;;;5011733;28;20199;-78
2022/06/17 09:57:12;;;;;;;1.98;1.20;;;24.90;60.20;;;;;;5012898;28;20173;-78
2022/06/17 09:59:45;;;;;;;1.85;1.20;;;24.80;61.30;;;;;;5013480;28;20241;-78
2022/06/17 10:02:46;;;;;;;1.85;1.30;;;25.10;63.60;;;;;;4996866;28;20182;-78
2022/06/17 10:05:16;;;;;;;1.55;1.33;;;25.30;61.80;;;;;;4996777;28;20226;-78
2022/06/17 10:08:01;;;;;;;2.03;1.30;;;25.80;60.20;;;;;;5015113;28;20598;-79
2022/06/17 10:10:34;;;;;;;1.40;1.30;;;26.30;64.10;;;;;;5013208;28;20167;-78
2022/06/17 10:13:26;;;;;;;1.30;1.20;;;26.40;58.10;;;;;;5014489;28;20672;-78
2022/06/17 10:19:40;;;;;;;1.20;1.10;;;26.70;58.20;;;;;;5017574;28;20229;-78
2022/06/17 10:22:13;;;;;;;1.88;1.48;;;26.50;54.60;;;;;;5014320;28;20297;-78
2022/06/17 10:24:39;;;;;;;1.30;1.15;;;26.30;55.10;;;;;;5015782;28;20201;-78
2022/06/17 10:27:28;;;;;;;1.63;1.23;;;25.80;54.30;;;;;;5032409;28;20175;-78
2022/06/17 10:30:05;;;;;;;2.08;1.30;;;26.20;55.60;;;;;;5032555;28;20249;-78
2022/06/17 10:32:36;;;;;;;1.38;1.27;;;26.60;55.70;;;;;;5016837;28;20191;-78
2022/06/17 10:35:04;;;;;;;1.30;1.20;;;27.20;55.90;;;;;;5015633;28;20217;-78
2022/06/17 10:37:33;;;;;;;1.50;1.23;;;27.40;52.70;;;;;;5027478;28;20182;-78
2022/06/17 10:40:00;;;;;;;2.30;1.20;;;27.20;51.80;;;;;;5002152;28;20637;-78
2022/06/17 10:42:28;;;;;;;3.22;1.20;;;27.30;51.50;;;;;;4998352;28;20174;-78
2022/06/17 10:44:59;;;;;;;1.73;1.10;;;26.90;50.90;;;;;;5031283;28;20198;-78
2022/06/17 10:47:27;;;;;;;2.00;1.20;;;27.00;50.40;;;;;;5015118;28;20660;-78
2022/06/17 10:50:05;;;;;;;1.25;1.15;;;26.90;50.20;;;;;;5016741;28;20167;-78
2022/06/17 10:52:44;;;;;;;1.27;1.00;;;26.80;51.70;;;;;;5034311;28;20170;-79
2022/06/17 10:55:20;;;;;;;1.48;1.17;;;26.90;51.00;;;;;;5035713;28;20201;-78
2022/06/17 10:58:12;;;;;;;2.58;1.40;;;27.00;51.40;;;;;;5053717;28;20554;-79
2022/06/17 11:01:04;;;;;;;1.98;1.30;;;26.90;51.30;;;;;;5021419;28;20178;-79
2022/06/17 11:03:30;;;;;;;1.77;1.25;;;26.90;49.70;;;;;;5035319;28;20304;-79
2022/06/17 11:06:17;;;;;;;1.20;1.08;;;27.20;49.40;;;;;;5036744;28;20213;-79
2022/06/17 11:08:57;;;;;;;1.50;1.05;;;27.20;48.20;;;;;;5028477;28;20195;-79
2022/06/17 11:14:55;;;;;;;1.08;1.00;;;27.80;47.50;;;;;;5035029;28;20200;-79
2022/06/17 11:17:34;;;;;;;1.15;1.05;;;28.00;46.30;;;;;;4997865;28;20229;-79
2022/06/17 11:20:15;;;;;;;1.30;1.17;;;28.20;45.30;;;;;;5013599;28;20163;-79
2022/06/17 11:22:49;;;;;;;1.30;1.20;;;28.30;44.20;;;;;;5013291;28;20603;-79
2022/06/17 11:25:35;;;;;;;1.13;1.02;;;28.40;45.00;;;;;;5012704;28;20622;-79
2022/06/17 11:28:24;;;;;;;1.20;1.10;;;28.20;44.00;;;;;;5024718;28;20205;-79
2022/06/17 11:30:56;;;;;;;1.08;0.90;;;27.70;42.60;;;;;;5033046;28;20174;-77
2022/06/17 11:33:24;;;;;;;1.75;1.02;;;27.50;43.00;;;;;;5016959;28;20205;-77
2022/06/17 11:36:03;;;;;;;1.15;1.00;;;27.40;42.20;;;;;;5033354;28;20224;-77
2022/06/17 11:38:32;;;;;;;1.13;1.02;;;27.90;42.30;;;;;;5033316;28;20198;-77
2022/06/17 11:41:00;;;;;;;1.85;1.05;;;28.00;43.40;;;;;;5016737;28;20174;-78
2022/06/17 11:43:42;;;;;;;1.98;0.95;;;28.40;44.90;;;;;;5000658;28;20206;-78
2022/06/17 11:46:21;;;;;;;1.30;1.00;;;28.80;46.40;;;;;;5034161;28;20178;-78
2022/06/17 11:48:57;;;;;;;1.58;1.25;;;29.40;43.20;;;;;;5033559;28;20233;-78
2022/06/17 11:51:31;;;;;;;1.48;1.10;;;29.40;42.20;;;;;;5017693;28;20173;-78
2022/06/17 11:54:07;;;;;;;1.52;1.33;;;29.30;43.90;;;;;;5016952;28;20201;-78
2022/06/17 11:56:42;;;;;;;2.15;1.30;;;29.70;43.60;;;;;;5033555;28;20193;-78
2022/06/17 11:59:12;;;;;;;1.67;1.30;;;29.50;41.20;;;;;;5016990;28;20182;-78
2022/06/17 12:01:39;;;;;;;2.25;1.38;;;29.10;41.50;;;;;;5034185;28;20167;-78
2022/06/17 12:04:06;;;;;;;1.70;1.20;;;29.10;43.20;;;;;;5017329;28;20214;-78
2022/06/17 12:06:47;;;;;;;1.50;1.23;;;29.70;40.90;;;;;;5033937;28;20182;-78
2022/06/17 12:09:29;;;;;;;1.33;1.23;;;29.80;41.50;;;;;;5034068;28;20700;-78
2022/06/17 12:11:59;;;;;;;2.38;1.60;;;29.90;42.50;;;;;;5033690;28;20596;-78
2022/06/17 12:14:46;;;;;;;3.17;1.35;;;30.30;40.50;;;;;;5017772;28;20545;-78
2022/06/17 12:17:14;;;;;;;2.05;1.30;;;30.70;39.50;;;;;;5034363;28;20201;-78
2022/06/17 12:19:40;;;;;;;1.55;1.23;;;30.90;41.30;;;;;;5033881;28;20183;-78
2022/06/17 12:22:23;;;;;;;1.65;1.33;;;31.00;40.40;;;;;;5001521;28;20186;-78
2022/06/17 12:24:54;;;;;;;2.40;1.20;;;31.30;39.70;;;;;;5032789;28;20213;-77
2022/06/17 12:27:33;;;;;;;1.38;1.20;;;30.80;34.60;;;;;;5032683;28;20173;-77
2022/06/17 12:30:19;;;;;;;1.30;1.20;;;30.40;39.00;;;;;;5032999;28;20228;-78
2022/06/17 12:33:12;;;;;;;1.88;1.00;;;30.60;37.80;;;;;;5017280;28;20178;-77
2022/06/17 12:35:41;;;;;;;1.85;1.10;;;30.60;36.00;;;;;;5037132;28;20167;-78
2022/06/17 12:38:15;;;;;;;1.25;0.82;;;31.00;36.10;;;;;;5037278;28;20162;-77
2022/06/17 12:40:54;;;;;;;1.08;0.98;;;31.20;32.10;;;;;;5035254;28;20165;-78
2022/06/17 12:43:37;;;;;;;0.70;0.70;;;31.00;32.30;;;;;;5020088;28;20209;-78
2022/06/17 12:46:08;;;;;;;0.80;0.80;;;30.50;30.30;;;;;;5037314;28;20214;-79
2022/06/17 12:48:49;;;;;;;0.80;0.75;;;30.10;31.30;;;;;;5038278;28;20202;-78
2022/06/17 12:54:43;;;;;;;0.65;0.60;;;30.50;29.90;;;;;;5038728;28;20197;-78
2022/06/17 12:57:12;;;;;;;0.70;0.70;;;30.60;30.40;;;;;;5036259;28;20241;-78
2022/06/17 12:59:50;;;;;;;1.42;0.75;;;30.60;30.20;;;;;;5035018;28;20177;-78
2022/06/17 13:02:42;;;;;;;0.98;0.80;;;30.20;31.10;;;;;;5037655;28;20151;-76
2022/06/17 13:05:22;;;;;;;1.42;0.80;;;30.50;30.70;;;;;;5036410;28;20190;-78
2022/06/17 13:08:32;;;;;;;1.45;0.80;;;30.80;29.90;;;;;;5036233;28;20186;-78
2022/06/17 13:11:30;;;;;;;1.00;0.90;;;30.60;29.80;;;;;;5036706;28;20162;-78
2022/06/17 13:14:02;;;;;;;0.90;0.60;;;31.00;31.00;;;;;;5037421;28;20194;-77
2022/06/17 13:16:45;;;;;;;1.23;0.80;;;31.10;30.00;;;;;;5035298;28;20174;-77
2022/06/17 13:19:37;;;;;;;0.88;0.88;;;30.70;30.00;;;;;;5036353;28;20221;-79
2022/06/17 13:22:08;;;;;;;1.48;0.90;;;30.70;30.40;;;;;;5018456;28;20182;-79
2022/06/17 13:24:36;;;;;;;0.73;0.73;;;30.70;30.80;;;;;;5036379;28;20194;-79
2022/06/17 13:27:13;;;;;;;1.00;0.90;;;31.20;31.20;;;;;;5035549;28;20178;-79
2022/06/17 13:29:54;;;;;;;1.98;0.82;;;31.40;31.80;;;;;;5037497;28;20201;-79
2022/06/17 13:32:23;;;;;;;0.93;0.82;;;32.00;31.80;;;;;;5037395;28;20170;-77
2022/06/17 13:34:58;;;;;;;0.75;0.75;;;32.40;30.50;;;;;;5037010;28;20206;-80